createdAt,value
2023-07-12T00:01:38.106Z,26.69
2023-07-12T00:04:05.145Z,26.63
2023-07-12T00:06:37.971Z,26.53
2023-07-12T00:09:07.488Z,26.16
2023-07-12T00:11:34.161Z,25.95
2023-07-12T00:14:01.019Z,25.67
2023-07-12T00:16:29.623Z,25.57
2023-07-12T00:18:58.358Z,25.61
2023-07-12T00:21:28.102Z,25.77
2023-07-12T00:23:57.833Z,25.78
2023-07-12T00:26:29.039Z,25.77
2023-07-12T00:28:57.158Z,25.52
2023-07-12T00:31:24.739Z,25.53
2023-07-12T00:33:51.987Z,25.61
2023-07-12T00:36:22.940Z,25.46
2023-07-12T00:38:50.293Z,25.56
2023-07-12T00:41:38.506Z,25.50
2023-07-12T00:44:12.655Z,25.53
2023-07-12T00:46:43.247Z,25.34
2023-07-12T00:49:13.059Z,25.35
2023-07-12T00:52:01.215Z,25.41
2023-07-12T00:54:48.410Z,25.55
2023-07-12T00:57:15.216Z,25.66
2023-07-12T00:59:42.275Z,25.71
2023-07-12T01:02:09.920Z,25.71
2023-07-12T01:04:49.468Z,25.87
2023-07-12T01:07:19.040Z,25.74
2023-07-12T01:09:45.792Z,25.92
2023-07-12T01:12:12.549Z,25.94
2023-07-12T01:14:44.965Z,25.94
2023-07-12T01:17:11.916Z,25.95
2023-07-12T01:19:39.405Z,25.92
2023-07-12T01:22:06.559Z,25.92
2023-07-12T01:24:33.912Z,26.02
2023-07-12T01:27:07.082Z,25.90
2023-07-12T01:29:33.783Z,25.88
2023-07-12T01:32:00.581Z,25.78
2023-07-12T01:34:27.404Z,25.81
2023-07-12T01:36:54.747Z,25.84
2023-07-12T01:39:21.494Z,25.73
2023-07-12T01:41:48.574Z,25.87
2023-07-12T01:44:15.678Z,25.74
2023-07-12T01:46:42.468Z,25.67
2023-07-12T01:49:09.317Z,25.93
2023-07-12T01:51:36.048Z,25.85
2023-07-12T01:54:02.872Z,25.79
2023-07-12T01:56:29.706Z,25.78
2023-07-12T01:58:56.507Z,25.79
2023-07-12T02:01:23.279Z,25.71
2023-07-12T02:03:50.349Z,25.69
2023-07-12T02:06:17.176Z,25.44
2023-07-12T02:08:44.651Z,25.56
2023-07-12T02:11:11.724Z,25.49
2023-07-12T02:13:39.100Z,25.38
2023-07-12T02:16:05.887Z,25.40
2023-07-12T02:18:32.746Z,25.15
2023-07-12T02:20:59.496Z,25.14
2023-07-12T02:23:26.229Z,25.04
2023-07-12T02:25:53.014Z,24.97
2023-07-12T02:28:19.780Z,24.67
2023-07-12T02:30:46.553Z,24.52
2023-07-12T02:33:13.365Z,24.61
2023-07-12T02:35:42.276Z,24.22
2023-07-12T02:38:09.698Z,23.92
2023-07-12T02:40:36.668Z,23.40
2023-07-12T02:43:03.406Z,23.08
2023-07-12T02:45:30.227Z,23.08
2023-07-12T02:47:57.160Z,23.09
2023-07-12T02:50:23.923Z,23.00
2023-07-12T02:52:50.984Z,23.07
2023-07-12T02:55:17.799Z,23.03
2023-07-12T02:57:44.586Z,22.99
2023-07-12T03:00:11.944Z,22.88
2023-07-12T03:02:38.749Z,22.91
2023-07-12T03:05:06.008Z,23.04
2023-07-12T03:07:33.162Z,23.00
2023-07-12T03:10:00.003Z,23.12
2023-07-12T03:12:26.744Z,23.15
2023-07-12T03:14:54.069Z,23.37
2023-07-12T03:17:21.660Z,23.38
2023-07-12T03:19:48.535Z,23.30
2023-07-12T03:22:15.270Z,23.45
2023-07-12T03:24:42.249Z,23.72
2023-07-12T03:27:09.144Z,23.82
2023-07-12T03:29:35.855Z,23.95
2023-07-12T03:32:02.976Z,24.00
2023-07-12T03:34:32.560Z,24.12
2023-07-12T03:36:59.997Z,24.11
2023-07-12T03:39:26.890Z,24.32
2023-07-12T03:41:53.631Z,24.52
2023-07-12T03:44:20.594Z,24.77
2023-07-12T03:46:47.344Z,24.87
2023-07-12T03:49:14.589Z,24.96
2023-07-12T03:51:41.425Z,24.98
2023-07-12T03:54:08.134Z,25.19
2023-07-12T03:56:34.838Z,25.29
2023-07-12T03:59:01.561Z,25.43
2023-07-12T04:01:28.507Z,25.61
2023-07-12T04:03:55.541Z,25.67
2023-07-12T04:06:22.595Z,25.78
2023-07-12T04:08:49.295Z,25.95
2023-07-12T04:11:26.339Z,26.02
2023-07-12T04:13:53.719Z,26.09
2023-07-12T04:16:20.816Z,26.21
2023-07-12T04:18:47.613Z,26.28
2023-07-12T04:21:14.724Z,26.28
2023-07-12T04:23:41.621Z,26.34
2023-07-12T04:26:08.538Z,26.12
2023-07-12T04:28:40.161Z,26.36
2023-07-12T04:31:12.784Z,26.34
2023-07-12T04:33:40.159Z,26.40
2023-07-12T04:36:12.333Z,25.90
2023-07-12T04:38:39.374Z,25.92
2023-07-12T04:41:07.518Z,25.82
2023-07-12T04:43:34.765Z,25.80
2023-07-12T04:46:01.671Z,25.88
2023-07-12T04:48:29.046Z,26.01
2023-07-12T04:50:56.306Z,26.17
2023-07-12T04:53:24.045Z,26.40
2023-07-12T04:55:54.285Z,26.28
2023-07-12T04:58:21.425Z,26.58
2023-07-12T05:00:48.341Z,26.54
2023-07-12T05:03:17.321Z,26.66
2023-07-12T05:05:44.683Z,26.65
2023-07-12T05:08:12.250Z,26.75
2023-07-12T05:10:43.414Z,26.62
2023-07-12T05:13:10.220Z,26.69
2023-07-12T05:15:36.945Z,26.63
2023-07-12T05:18:04.045Z,26.87
2023-07-12T05:20:30.907Z,26.73
2023-07-12T05:22:57.670Z,27.04
2023-07-12T05:25:24.409Z,27.23
2023-07-12T05:27:51.104Z,27.46
2023-07-12T05:30:18.137Z,27.75
2023-07-12T05:32:44.905Z,27.74
2023-07-12T05:35:11.676Z,27.92
2023-07-12T05:37:38.423Z,28.15
2023-07-12T05:40:06.829Z,28.37
2023-07-12T05:42:34.234Z,28.36
2023-07-12T05:45:01.646Z,28.51
2023-07-12T05:47:28.556Z,28.70
2023-07-12T05:49:56.938Z,28.50
2023-07-12T05:52:23.691Z,28.48
2023-07-12T05:54:50.452Z,28.71
2023-07-12T05:57:17.589Z,28.75
2023-07-12T05:59:44.542Z,28.94
2023-07-12T06:02:14.965Z,28.98
2023-07-12T06:04:42.411Z,29.59
2023-07-12T06:07:09.262Z,29.82
2023-07-12T06:09:36.107Z,29.66
2023-07-12T06:12:02.908Z,29.70
2023-07-12T06:14:29.580Z,29.58
2023-07-12T06:16:56.655Z,29.52
2023-07-12T06:19:23.636Z,29.39
2023-07-12T06:21:50.422Z,29.27
2023-07-12T06:24:17.312Z,29.72
2023-07-12T06:26:44.137Z,29.84
2023-07-12T06:29:11.053Z,30.07
2023-07-12T06:31:37.917Z,30.51
2023-07-12T06:34:05.315Z,30.58
2023-07-12T06:36:34.819Z,30.71
2023-07-12T06:39:01.689Z,30.86
2023-07-12T06:41:28.612Z,30.95
2023-07-12T06:43:55.408Z,31.27
2023-07-12T06:46:22.189Z,31.02
2023-07-12T06:48:49.360Z,30.85
2023-07-12T06:51:16.272Z,30.70
2023-07-12T06:53:43.017Z,30.73
2023-07-12T06:56:09.862Z,30.94
2023-07-12T06:58:36.783Z,31.26
2023-07-12T07:01:11.267Z,31.72
2023-07-12T07:03:38.451Z,31.71
2023-07-12T07:06:05.201Z,31.23
2023-07-12T07:08:32.937Z,31.42
2023-07-12T07:11:01.966Z,31.65
2023-07-12T07:13:28.894Z,31.96
2023-07-12T07:15:56.672Z,32.07
2023-07-12T07:18:23.769Z,31.62
2023-07-12T07:20:52.259Z,31.89
2023-07-12T07:23:19.349Z,32.16
2023-07-12T07:25:46.947Z,32.45
2023-07-12T07:28:13.671Z,32.60
2023-07-12T07:30:40.423Z,31.82
2023-07-12T07:33:07.816Z,32.01
2023-07-12T07:35:34.879Z,32.40
2023-07-12T07:38:01.857Z,32.70
2023-07-12T07:40:28.650Z,33.19
2023-07-12T07:42:56.464Z,33.29
2023-07-12T07:45:23.336Z,32.82
2023-07-12T07:47:50.351Z,33.38
2023-07-12T07:50:17.303Z,33.91
2023-07-12T07:52:44.375Z,33.42
2023-07-12T07:55:11.165Z,33.64
2023-07-12T07:57:37.960Z,33.87
2023-07-12T08:00:08.586Z,34.31
2023-07-12T08:02:35.475Z,33.61
2023-07-12T08:05:02.431Z,34.33
2023-07-12T08:07:29.346Z,34.55
2023-07-12T08:09:56.300Z,34.49
2023-07-12T08:12:23.179Z,34.17
2023-07-12T08:14:50.596Z,33.45
2023-07-12T08:17:17.399Z,33.67
2023-07-12T08:19:44.213Z,34.20
2023-07-12T08:22:11.062Z,34.34
2023-07-12T08:24:37.833Z,34.82
2023-07-12T08:27:08.169Z,34.90
2023-07-12T08:29:35.785Z,34.83
2023-07-12T08:32:06.907Z,35.11
2023-07-12T08:34:34.317Z,34.92
2023-07-12T08:37:01.310Z,35.42
2023-07-12T08:39:27.980Z,35.78
2023-07-12T08:41:55.305Z,35.97
2023-07-12T08:44:23.915Z,35.92
2023-07-12T08:46:58.912Z,35.29
2023-07-12T08:49:27.737Z,35.61
2023-07-12T08:52:00.489Z,35.57
2023-07-12T08:54:35.225Z,35.79
2023-07-12T08:57:26.156Z,36.18
2023-07-12T09:00:02.088Z,35.84
2023-07-12T09:02:28.856Z,35.53
2023-07-12T09:05:00.438Z,36.07
2023-07-12T09:07:35.185Z,36.02
2023-07-12T09:10:02.323Z,35.39
2023-07-12T09:12:34.012Z,35.70
2023-07-12T09:15:06.864Z,35.94
2023-07-12T09:17:40.327Z,36.18
2023-07-12T09:20:24.314Z,36.13
2023-07-12T09:22:52.792Z,36.19
2023-07-12T09:25:23.761Z,35.95
2023-07-12T09:27:50.735Z,36.36
2023-07-12T09:30:23.579Z,36.11
2023-07-12T09:32:53.840Z,36.21
2023-07-12T09:35:23.656Z,36.58
2023-07-12T09:38:02.148Z,36.11
2023-07-12T09:40:43.636Z,35.96
2023-07-12T09:43:20.653Z,35.95
2023-07-12T09:46:12.562Z,36.35
2023-07-12T09:49:21.213Z,36.29
2023-07-12T09:52:22.641Z,36.63
2023-07-12T09:55:06.848Z,36.87
2023-07-12T09:57:42.384Z,37.37
2023-07-12T10:00:24.389Z,37.24
2023-07-12T10:03:03.068Z,36.67
2023-07-12T10:05:30.120Z,37.34
2023-07-12T10:08:09.607Z,37.18
2023-07-12T10:10:39.856Z,36.82
2023-07-12T10:13:22.764Z,36.98
2023-07-12T10:15:50.755Z,36.92
2023-07-12T10:18:22.800Z,36.43
2023-07-12T10:20:50.356Z,35.83
2023-07-12T10:23:19.786Z,36.70
2023-07-12T10:25:51.714Z,37.01
2023-07-12T10:28:18.605Z,37.38
2023-07-12T10:30:48.541Z,37.91
2023-07-12T10:33:30.597Z,36.80
2023-07-12T10:36:01.628Z,37.41
2023-07-12T10:38:30.046Z,37.54
2023-07-12T10:41:05.962Z,37.08
2023-07-12T10:43:41.368Z,37.55
2023-07-12T10:46:31.624Z,37.29
2023-07-12T10:48:59.317Z,37.89
2023-07-12T10:51:28.743Z,37.17
2023-07-12T10:53:56.824Z,37.32
2023-07-12T10:56:33.935Z,37.62
2023-07-12T10:59:25.774Z,37.66
2023-07-12T11:01:55.660Z,37.12
2023-07-12T11:04:31.326Z,36.82
2023-07-12T11:07:16.785Z,37.03
2023-07-12T11:09:45.532Z,37.29
2023-07-12T11:12:14.521Z,36.42
2023-07-12T11:14:42.615Z,35.73
2023-07-12T11:17:10.518Z,35.90
2023-07-12T11:19:40.043Z,36.39
2023-07-12T11:22:43.669Z,36.73
2023-07-12T11:25:45.972Z,37.42
2023-07-12T11:28:21.377Z,37.71
2023-07-12T11:30:48.688Z,37.45
2023-07-12T11:33:25.656Z,37.49
2023-07-12T11:36:02.886Z,37.48
2023-07-12T11:38:32.558Z,37.56
2023-07-12T11:41:05.021Z,37.65
2023-07-12T11:43:35.986Z,37.94
2023-07-12T11:46:10.792Z,38.01
2023-07-12T11:48:37.835Z,38.47
2023-07-12T11:51:10.292Z,38.15
2023-07-12T11:53:37.762Z,38.00
2023-07-12T11:56:06.740Z,37.67
2023-07-12T11:58:34.695Z,38.33
2023-07-12T12:01:02.417Z,37.87
2023-07-12T12:03:29.284Z,37.72
2023-07-12T12:05:56.149Z,38.30
2023-07-12T12:08:28.523Z,38.38
2023-07-12T12:10:56.244Z,38.54
2023-07-12T12:13:22.935Z,38.79
2023-07-12T12:16:12.462Z,39.14
2023-07-12T12:18:39.494Z,39.24
2023-07-12T12:21:19.079Z,40.17
2023-07-12T12:23:58.838Z,39.70
2023-07-12T12:26:28.835Z,39.05
2023-07-12T12:29:25.177Z,39.42
2023-07-12T12:31:52.115Z,39.11
2023-07-12T12:34:19.753Z,39.15
2023-07-12T12:37:19.833Z,40.17
2023-07-12T12:39:59.440Z,40.10
2023-07-12T12:42:28.470Z,40.03
2023-07-12T12:44:56.727Z,40.37
2023-07-12T12:47:31.706Z,39.50
2023-07-12T12:55:08.667Z,39.62
2023-07-12T13:05:32.428Z,40.57
2023-07-12T13:18:27.696Z,41.68
2023-07-12T13:20:54.706Z,40.76
2023-07-12T13:23:24.710Z,41.11
2023-07-12T13:25:53.576Z,40.45
2023-07-12T13:28:21.463Z,39.85
2023-07-12T13:30:48.611Z,39.53
2023-07-12T13:33:16.721Z,39.84
2023-07-12T13:42:14.371Z,39.84
2023-07-12T13:45:13.823Z,39.67
2023-07-12T13:46:19.399Z,40.70
2023-07-12T13:48:46.206Z,39.33
2023-07-12T13:51:24.255Z,38.61
2023-07-12T13:53:51.923Z,39.28
2023-07-12T13:59:15.750Z,37.99
2023-07-12T14:06:57.238Z,36.43
2023-07-12T14:09:25.791Z,36.16
2023-07-12T14:11:53.214Z,36.01
2023-07-12T14:14:19.907Z,36.10
2023-07-12T14:16:47.146Z,35.92
2023-07-12T14:19:14.013Z,36.02
2023-07-12T14:21:40.838Z,35.76
2023-07-12T14:24:09.494Z,35.52
2023-07-12T14:26:36.223Z,35.26
2023-07-12T14:29:05.657Z,35.53
2023-07-12T14:31:35.508Z,35.44
2023-07-12T14:34:02.292Z,35.45
2023-07-12T14:36:29.841Z,35.52
2023-07-12T14:38:57.755Z,35.73
2023-07-12T14:41:30.327Z,35.78
2023-07-12T14:44:12.755Z,36.08
2023-07-12T14:46:40.223Z,36.05
2023-07-12T14:49:07.293Z,36.34
2023-07-12T14:51:35.483Z,36.01
2023-07-12T14:54:05.974Z,35.96
2023-07-12T14:56:32.679Z,35.75
2023-07-12T14:58:59.375Z,35.41
2023-07-12T15:01:29.509Z,35.45
2023-07-12T15:04:08.680Z,35.38
2023-07-12T15:06:35.929Z,35.17
2023-07-12T15:09:07.653Z,35.18
2023-07-12T15:11:35.109Z,35.12
2023-07-12T15:14:03.289Z,35.03
2023-07-12T15:16:30.078Z,35.00
2023-07-12T15:18:56.938Z,34.91
2023-07-12T15:21:31.148Z,35.01
2023-07-12T15:23:58.185Z,35.04
2023-07-12T15:26:25.878Z,34.53
2023-07-12T15:28:52.932Z,34.54
2023-07-12T15:31:27.687Z,34.59
2023-07-12T15:33:54.754Z,34.38
2023-07-12T15:36:22.980Z,34.19
2023-07-12T15:38:51.370Z,34.07
2023-07-12T15:41:23.468Z,33.88
2023-07-12T15:43:56.068Z,33.97
2023-07-12T15:46:31.368Z,33.75
2023-07-12T15:48:58.700Z,33.53
2023-07-12T15:51:40.937Z,33.49
2023-07-12T15:54:21.224Z,33.32
2023-07-12T15:56:50.298Z,33.40
2023-07-12T15:59:19.064Z,33.06
2023-07-12T16:01:47.230Z,33.13
2023-07-12T16:04:22.316Z,33.11
2023-07-12T16:06:49.722Z,33.03
2023-07-12T16:09:17.877Z,32.71
2023-07-12T16:11:47.780Z,32.59
2023-07-12T16:14:23.484Z,32.49
2023-07-12T16:16:51.764Z,32.54
2023-07-12T16:19:19.739Z,32.25
2023-07-12T16:21:47.977Z,32.05
2023-07-12T16:24:16.994Z,32.16
2023-07-12T16:26:43.725Z,32.25
2023-07-12T16:29:10.424Z,32.32
2023-07-12T16:31:44.894Z,32.29
2023-07-12T16:34:17.854Z,32.25
2023-07-12T16:36:46.520Z,31.93
2023-07-12T16:39:16.815Z,31.93
2023-07-12T16:41:44.611Z,31.74
2023-07-12T16:44:20.675Z,31.69
2023-07-12T16:46:49.049Z,31.47
2023-07-12T16:49:16.448Z,31.59
2023-07-12T16:51:49.125Z,31.52
2023-07-12T16:54:15.916Z,31.34
2023-07-12T16:56:42.615Z,31.29
2023-07-12T16:59:09.457Z,31.23
2023-07-12T17:01:36.751Z,31.00
2023-07-12T17:04:06.269Z,30.90
2023-07-12T17:06:33.273Z,30.79
2023-07-12T17:08:59.962Z,30.58
2023-07-12T17:11:29.208Z,30.69
2023-07-12T17:13:56.275Z,30.60
2023-07-12T17:16:23.342Z,30.50
2023-07-12T17:18:50.128Z,30.49
2023-07-12T17:21:19.751Z,30.40
2023-07-12T17:23:47.589Z,30.11
2023-07-12T17:26:16.953Z,30.01
2023-07-12T17:28:45.848Z,29.94
2023-07-12T17:31:12.508Z,29.91
2023-07-12T17:33:39.670Z,29.67
2023-07-12T17:36:07.503Z,29.62
2023-07-12T17:38:34.583Z,29.62
2023-07-12T17:41:01.526Z,29.46
2023-07-12T17:43:31.018Z,29.33
2023-07-12T17:45:58.172Z,29.11
2023-07-12T17:48:25.467Z,29.09
2023-07-12T17:51:00.205Z,28.91
2023-07-12T17:53:27.319Z,28.63
2023-07-12T17:55:59.081Z,28.45
2023-07-12T17:58:28.971Z,28.36
2023-07-12T18:00:56.904Z,28.22
2023-07-12T18:03:27.870Z,28.13
2023-07-12T18:05:55.224Z,28.00
2023-07-12T18:08:23.086Z,27.94
2023-07-12T18:10:59.657Z,27.85
2023-07-12T18:13:29.360Z,27.73
2023-07-12T18:15:56.807Z,27.68
2023-07-12T18:18:24.019Z,27.56
2023-07-12T18:20:53.170Z,27.32
2023-07-12T18:23:24.452Z,27.31
2023-07-12T18:25:52.450Z,27.23
2023-07-12T18:28:21.583Z,27.22
2023-07-12T18:30:53.670Z,27.09
2023-07-12T18:33:23.487Z,27.06
2023-07-12T18:35:54.557Z,27.14
2023-07-12T18:38:22.892Z,27.06
2023-07-12T18:40:50.552Z,26.99
2023-07-12T18:43:20.097Z,26.87
2023-07-12T18:45:47.422Z,26.79
2023-07-12T18:48:15.674Z,26.42
2023-07-12T18:50:45.203Z,26.52
2023-07-12T18:53:17.048Z,26.51
2023-07-12T18:55:44.568Z,26.32
2023-07-12T18:58:12.585Z,26.26
2023-07-12T19:00:41.648Z,26.06
2023-07-12T19:03:25.592Z,25.90
2023-07-12T19:05:52.309Z,25.79
2023-07-12T19:08:19.314Z,25.66
2023-07-12T19:10:46.072Z,25.71
2023-07-12T19:13:14.085Z,25.78
2023-07-12T19:15:40.770Z,25.63
2023-07-12T19:18:09.557Z,25.55
2023-07-12T19:20:36.863Z,25.52
2023-07-12T19:23:04.269Z,25.51
2023-07-12T19:25:32.135Z,25.42
2023-07-12T19:27:58.903Z,25.33
2023-07-12T19:30:29.018Z,25.25
2023-07-12T19:32:55.929Z,25.28
2023-07-12T19:35:26.020Z,25.15
2023-07-12T19:37:54.104Z,25.05
2023-07-12T19:40:22.704Z,24.96
2023-07-12T19:42:51.591Z,24.98
2023-07-12T19:45:23.436Z,24.91
2023-07-12T19:47:55.259Z,24.84
2023-07-12T19:50:23.234Z,24.89
2023-07-12T19:52:51.126Z,24.94
2023-07-12T19:55:23.408Z,24.85
2023-07-12T19:57:50.514Z,24.59
2023-07-12T20:00:18.066Z,24.68
2023-07-12T20:02:45.213Z,24.77
2023-07-12T20:05:13.010Z,24.81
2023-07-12T20:07:41.868Z,24.73
2023-07-12T20:10:09.660Z,24.56
2023-07-12T20:12:38.475Z,24.75
2023-07-12T20:15:07.503Z,24.53
2023-07-12T20:17:34.402Z,24.78
2023-07-12T20:20:01.175Z,24.45
2023-07-12T20:22:28.671Z,24.61
2023-07-12T20:24:55.447Z,24.40
2023-07-12T20:27:22.152Z,24.29
2023-07-12T20:29:49.907Z,24.24
2023-07-12T20:32:17.440Z,24.18
2023-07-12T20:34:44.119Z,24.10
2023-07-12T20:37:10.902Z,23.84
2023-07-12T20:39:39.416Z,23.90
2023-07-12T20:42:07.940Z,23.98
2023-07-12T20:44:34.762Z,23.92
2023-07-12T20:47:02.778Z,23.82
2023-07-12T20:49:32.304Z,23.69
2023-07-12T20:52:01.813Z,23.64
2023-07-12T20:54:28.748Z,23.53
2023-07-12T20:56:55.465Z,23.18
2023-07-12T20:59:22.298Z,23.48
2023-07-12T21:01:49.096Z,23.43
2023-07-12T21:04:15.887Z,23.41
2023-07-12T21:06:42.613Z,23.57
2023-07-12T21:09:13.409Z,23.52
2023-07-12T21:11:40.305Z,23.50
2023-07-12T21:14:06.992Z,23.45
2023-07-12T21:16:33.724Z,23.14
2023-07-12T21:19:00.456Z,23.08
2023-07-12T21:21:27.246Z,23.16
2023-07-12T21:23:54.106Z,23.22
2023-07-12T21:26:21.117Z,23.25
2023-07-12T21:28:48.037Z,23.13
2023-07-12T21:31:17.980Z,23.10
2023-07-12T21:33:45.067Z,23.22
2023-07-12T21:36:12.318Z,23.20
2023-07-12T21:38:39.609Z,23.26
2023-07-12T21:41:09.055Z,23.19
2023-07-12T21:43:36.821Z,23.14
2023-07-12T21:46:04.771Z,23.06
2023-07-12T21:48:31.511Z,23.11
2023-07-12T21:50:58.842Z,23.06
2023-07-12T21:53:25.662Z,22.93
2023-07-12T21:55:52.364Z,22.85
2023-07-12T21:58:19.864Z,22.91
2023-07-12T22:00:46.619Z,22.96
2023-07-12T22:03:14.202Z,22.77
2023-07-12T22:05:45.565Z,22.93
2023-07-12T22:08:13.099Z,22.91
2023-07-12T22:10:40.386Z,22.89
2023-07-12T22:13:07.124Z,22.47
2023-07-12T22:15:34.026Z,22.85
2023-07-12T22:18:00.857Z,22.82
2023-07-12T22:20:30.635Z,22.74
2023-07-12T22:22:58.591Z,22.75
2023-07-12T22:25:25.840Z,22.71
2023-07-12T22:27:52.900Z,22.85
2023-07-12T22:30:32.584Z,22.69
2023-07-12T22:32:59.680Z,22.69
2023-07-12T22:35:27.288Z,22.69
2023-07-12T22:37:55.576Z,22.62
2023-07-12T22:40:24.022Z,22.76
2023-07-12T22:42:52.018Z,22.82
2023-07-12T22:45:19.292Z,22.74
2023-07-12T22:47:46.143Z,22.68
2023-07-12T22:50:13.950Z,22.80
2023-07-12T22:52:42.354Z,22.81
2023-07-12T22:55:10.444Z,22.82
2023-07-12T22:57:37.465Z,22.72
2023-07-12T23:00:05.171Z,22.84
2023-07-12T23:02:31.917Z,22.78
2023-07-12T23:04:58.627Z,22.81
2023-07-12T23:07:25.591Z,22.70
2023-07-12T23:09:52.297Z,22.70
2023-07-12T23:12:18.966Z,22.63
2023-07-12T23:14:45.950Z,22.62
2023-07-12T23:17:13.376Z,22.51
2023-07-12T23:19:41.021Z,22.50
2023-07-12T23:22:14.829Z,22.58
2023-07-12T23:24:41.586Z,22.49
2023-07-12T23:27:09.245Z,22.43
2023-07-12T23:29:36.263Z,22.37
2023-07-12T23:32:06.086Z,22.34
2023-07-12T23:34:33.221Z,22.35
2023-07-12T23:37:01.962Z,22.45
2023-07-12T23:39:29.592Z,22.55
2023-07-12T23:42:03.783Z,22.36
2023-07-12T23:44:36.001Z,22.62
2023-07-12T23:47:06.368Z,22.56
2023-07-12T23:49:33.477Z,22.42
2023-07-12T23:52:01.159Z,22.42
2023-07-12T23:54:29.747Z,22.34
2023-07-12T23:56:57.339Z,22.46
2023-07-12T23:59:24.023Z,22.46
